createdAt,value
2022-09-15T04:00:29.324Z,15.20
2022-09-15T04:05:29.183Z,15.48
2022-09-15T04:10:29.136Z,15.42
2022-09-15T04:15:29.065Z,15.45
2022-09-15T04:20:29.068Z,15.44
2022-09-15T04:25:28.979Z,15.62
2022-09-15T04:30:28.905Z,15.63
2022-09-15T04:35:28.940Z,15.59
2022-09-15T04:40:28.921Z,15.54
2022-09-15T04:45:28.875Z,15.56
2022-09-15T04:50:28.702Z,15.55
2022-09-15T04:55:28.653Z,15.53
2022-09-15T05:00:28.614Z,15.62
2022-09-15T05:05:28.542Z,15.70
2022-09-15T05:10:28.488Z,15.70
2022-09-15T05:15:28.433Z,15.66
2022-09-15T05:20:28.465Z,15.71
2022-09-15T05:25:28.311Z,15.73
2022-09-15T05:30:44.570Z,15.83
2022-09-15T05:35:29.220Z,15.95
2022-09-15T05:40:28.333Z,16.00
2022-09-15T05:45:28.105Z,15.99
2022-09-15T05:50:28.047Z,16.06
2022-09-15T05:55:27.995Z,15.94
2022-09-15T06:00:28.151Z,16.10
2022-09-15T06:05:27.886Z,15.95
2022-09-15T06:10:27.951Z,16.04
2022-09-15T06:15:27.774Z,16.11
2022-09-15T06:20:27.735Z,16.24
2022-09-15T06:25:27.665Z,16.08
2022-09-15T06:30:27.604Z,16.25
2022-09-15T06:35:27.557Z,16.12
2022-09-15T06:40:27.558Z,16.30
2022-09-15T06:45:27.446Z,16.49
2022-09-15T06:50:27.386Z,16.65
2022-09-15T06:55:27.330Z,16.81
2022-09-15T07:00:27.330Z,17.01
2022-09-15T07:05:27.310Z,17.10
2022-09-15T07:10:27.196Z,16.90
2022-09-15T07:15:27.111Z,17.11
2022-09-15T07:20:27.077Z,17.36
2022-09-15T07:25:26.995Z,17.59
2022-09-15T07:30:26.944Z,17.68
2022-09-15T07:35:26.889Z,17.79
2022-09-15T07:40:26.975Z,17.81
2022-09-15T07:45:26.813Z,17.99
2022-09-15T07:50:26.721Z,17.98
2022-09-15T07:55:26.665Z,18.29
2022-09-15T08:00:26.733Z,18.47
2022-09-15T08:05:26.557Z,18.73
2022-09-15T08:10:26.505Z,18.98
2022-09-15T08:15:26.446Z,19.17
2022-09-15T08:20:26.417Z,19.36
2022-09-15T08:25:26.334Z,19.18
2022-09-15T08:30:26.297Z,19.34
2022-09-15T08:35:26.223Z,19.36
2022-09-15T08:40:26.358Z,19.21
2022-09-15T08:45:26.113Z,18.96
2022-09-15T08:50:26.065Z,18.96
2022-09-15T08:55:26.010Z,19.25
2022-09-15T09:00:25.974Z,20.20
2022-09-15T09:05:25.900Z,20.21
2022-09-15T09:10:25.842Z,20.29
2022-09-15T09:15:25.840Z,20.82
2022-09-15T09:20:25.750Z,20.86
2022-09-15T09:25:28.190Z,20.91
2022-09-15T09:30:25.624Z,21.13
2022-09-15T09:35:25.571Z,21.60
2022-09-15T09:40:25.632Z,21.46
2022-09-15T09:45:25.469Z,21.29
2022-09-15T09:50:25.411Z,21.01
2022-09-15T09:55:25.362Z,20.50
2022-09-15T10:00:25.446Z,20.88
2022-09-15T10:05:25.250Z,21.13
2022-09-15T10:10:25.209Z,21.14
2022-09-15T10:15:25.145Z,21.78
2022-09-15T10:20:25.236Z,21.19
2022-09-15T10:25:32.622Z,20.92
2022-09-15T10:30:25.981Z,21.36
2022-09-15T10:35:24.924Z,20.79
2022-09-15T10:40:24.947Z,20.04
2022-09-15T10:45:24.903Z,20.63
2022-09-15T10:50:24.770Z,21.14
2022-09-15T10:55:42.201Z,21.51
2022-09-15T11:00:25.689Z,21.73
2022-09-15T11:05:24.609Z,21.48
2022-09-15T11:10:24.553Z,21.30
2022-09-15T11:15:24.501Z,20.82
2022-09-15T11:20:24.470Z,20.88
2022-09-15T11:25:24.393Z,22.17
2022-09-15T11:30:24.347Z,21.84
2022-09-15T11:35:24.289Z,21.45
2022-09-15T11:40:24.349Z,21.19
2022-09-15T11:45:24.180Z,20.94
2022-09-15T11:50:24.129Z,20.16
2022-09-15T11:55:24.072Z,19.67
2022-09-15T12:00:24.041Z,19.38
2022-09-15T12:05:23.968Z,19.39
2022-09-15T12:10:23.955Z,19.79
2022-09-15T12:15:23.844Z,19.76
2022-09-15T12:20:23.825Z,19.53
2022-09-15T12:25:23.746Z,19.52
2022-09-15T12:30:23.692Z,19.93
2022-09-15T12:35:23.636Z,20.31
2022-09-15T12:40:23.675Z,20.77
2022-09-15T12:45:23.526Z,20.94
2022-09-15T12:50:23.480Z,19.99
2022-09-15T12:55:23.430Z,19.70
2022-09-15T13:00:23.388Z,19.68
2022-09-15T13:05:23.311Z,19.67
2022-09-15T13:10:23.253Z,19.83
2022-09-15T13:15:23.270Z,19.62
2022-09-15T13:20:23.154Z,19.44
2022-09-15T13:25:23.090Z,19.53
2022-09-15T13:30:23.034Z,19.86
2022-09-15T13:35:22.985Z,19.62
2022-09-15T13:40:22.976Z,19.65
2022-09-15T13:45:22.876Z,19.20
2022-09-15T13:50:22.815Z,18.96
2022-09-15T13:55:22.761Z,18.93
2022-09-15T14:00:23.291Z,19.33
2022-09-15T14:05:22.642Z,19.41
2022-09-15T14:10:22.598Z,19.44
2022-09-15T14:15:22.543Z,19.05
2022-09-15T14:20:22.508Z,19.45
2022-09-15T14:25:22.441Z,19.20
2022-09-15T14:30:22.376Z,19.02
2022-09-15T14:35:22.324Z,19.17
2022-09-15T14:40:22.375Z,19.01
2022-09-15T14:50:23.165Z,18.99
2022-09-15T14:55:22.110Z,18.95
2022-09-15T15:00:22.081Z,19.07
2022-09-15T15:05:21.985Z,19.16
2022-09-15T15:10:21.941Z,19.43
2022-09-15T15:15:21.905Z,19.47
2022-09-15T15:20:21.854Z,19.50
2022-09-15T15:25:21.778Z,19.44
2022-09-15T15:30:21.721Z,19.30
2022-09-15T15:35:21.666Z,19.46
2022-09-15T15:40:21.825Z,19.60
2022-09-15T15:45:21.624Z,19.54
2022-09-15T15:50:21.506Z,19.69
2022-09-15T15:55:21.451Z,19.66
2022-09-15T16:00:22.107Z,19.69
2022-09-15T16:05:21.340Z,19.33
2022-09-15T16:10:21.297Z,19.19
2022-09-15T16:15:21.239Z,19.38
2022-09-15T16:20:21.217Z,19.26
2022-09-15T16:25:21.119Z,19.10
2022-09-15T16:30:21.066Z,18.96
2022-09-15T16:35:21.007Z,18.88
2022-09-15T16:40:21.106Z,18.56
2022-09-15T16:45:20.904Z,18.48
2022-09-15T16:50:20.864Z,18.32
2022-09-15T16:55:20.790Z,18.31
2022-09-15T17:00:20.765Z,18.21
2022-09-15T17:05:20.668Z,18.24
2022-09-15T17:10:20.631Z,18.36
2022-09-15T17:15:20.572Z,18.22
2022-09-15T17:20:20.538Z,18.12
2022-09-15T17:25:20.462Z,18.09
2022-09-15T17:30:20.450Z,17.90
2022-09-15T17:35:20.352Z,18.05
2022-09-15T17:40:20.382Z,17.92
2022-09-15T17:45:20.241Z,17.99
2022-09-15T17:50:20.192Z,17.89
2022-09-15T17:55:20.138Z,17.93
2022-09-15T18:00:20.100Z,17.85
2022-09-15T18:05:20.046Z,17.77
2022-09-15T18:10:19.959Z,17.74
2022-09-15T18:15:19.892Z,17.81
2022-09-15T18:20:19.866Z,17.81
2022-09-15T18:25:19.793Z,17.72
2022-09-15T18:30:19.738Z,17.62
2022-09-15T18:35:19.681Z,17.66
2022-09-15T18:40:19.715Z,17.57
2022-09-15T18:45:19.577Z,17.41
2022-09-15T18:50:19.506Z,17.15
2022-09-15T18:55:19.456Z,16.98
2022-09-15T19:00:19.422Z,17.00
2022-09-15T19:05:19.351Z,16.96
2022-09-15T19:10:19.292Z,17.14
2022-09-15T19:15:23.681Z,16.97
2022-09-15T19:20:19.205Z,17.06
2022-09-15T19:25:19.118Z,17.01
2022-09-15T19:30:19.204Z,17.00
2022-09-15T19:35:19.029Z,16.98
2022-09-15T19:40:19.052Z,16.98
2022-09-15T19:45:18.914Z,16.84
2022-09-15T19:50:18.847Z,16.82
2022-09-15T19:55:18.794Z,16.84
2022-09-15T20:00:18.768Z,16.99
2022-09-15T20:05:18.674Z,16.90
2022-09-15T20:10:18.630Z,16.77
2022-09-15T20:15:18.573Z,16.78
2022-09-15T20:20:18.537Z,16.71
2022-09-15T20:25:18.467Z,16.54
2022-09-15T20:30:18.411Z,16.48
2022-09-15T20:35:18.356Z,16.44
2022-09-15T20:40:18.446Z,16.46
2022-09-15T20:45:18.232Z,16.40
2022-09-15T20:50:18.187Z,16.37
2022-09-15T20:55:18.133Z,16.46
2022-09-15T21:00:18.096Z,16.31
2022-09-15T21:05:18.027Z,16.26
2022-09-15T21:10:17.971Z,16.26
2022-09-15T21:15:17.916Z,16.13
2022-09-15T21:20:17.878Z,15.97
2022-09-15T21:25:17.806Z,15.77
2022-09-15T21:30:17.749Z,15.81
2022-09-15T21:35:17.693Z,15.98
2022-09-15T21:40:17.705Z,15.86
2022-09-15T21:45:17.689Z,15.78
2022-09-15T21:50:17.538Z,15.93
2022-09-15T21:55:17.481Z,15.92
2022-09-15T22:00:17.450Z,15.82
2022-09-15T22:05:17.369Z,15.79
2022-09-15T22:10:17.313Z,15.86
2022-09-15T22:15:24.321Z,15.72
2022-09-15T22:20:17.209Z,15.61
2022-09-15T22:25:21.697Z,15.66
2022-09-15T22:30:17.099Z,15.74
2022-09-15T22:35:17.073Z,15.62
2022-09-15T22:40:17.062Z,15.62
2022-09-15T22:45:16.931Z,15.49
2022-09-15T22:50:16.885Z,15.41
2022-09-15T22:55:16.848Z,15.42
2022-09-15T23:00:16.773Z,15.41
2022-09-15T23:05:16.722Z,15.45
2022-09-15T23:10:16.666Z,15.57
2022-09-15T23:15:16.635Z,15.48
2022-09-15T23:20:16.554Z,15.55
2022-09-15T23:25:16.493Z,15.49
